createdAt,value
2019-04-03T00:00:04.698Z,995.13
2019-04-03T00:01:04.706Z,995.09
2019-04-03T00:02:04.367Z,995.05
2019-04-03T00:03:13.232Z,995.09
2019-04-03T00:04:04.673Z,995.00
2019-04-03T00:05:04.615Z,995.01
2019-04-03T00:06:05.120Z,995.02
2019-04-03T00:07:03.872Z,994.96
2019-04-03T00:08:03.110Z,994.93
2019-04-03T00:09:03.081Z,994.93
2019-04-03T00:10:03.080Z,994.88
2019-04-03T00:11:03.036Z,994.88
2019-04-03T00:12:03.165Z,994.84
2019-04-03T00:13:02.991Z,994.83
2019-04-03T00:14:13.094Z,994.82
2019-04-03T00:15:03.150Z,994.81
2019-04-03T00:16:02.961Z,994.75
2019-04-03T00:17:03.023Z,994.86
2019-04-03T00:18:03.034Z,994.78
2019-04-03T00:19:02.909Z,994.77
2019-04-03T00:20:02.840Z,994.80
2019-04-03T00:21:02.838Z,994.76
2019-04-03T00:22:02.905Z,994.77
2019-04-03T00:23:02.807Z,994.73
2019-04-03T00:24:02.751Z,994.78
2019-04-03T00:25:12.735Z,994.81
2019-04-03T00:26:02.696Z,994.86
2019-04-03T00:27:02.677Z,994.85
2019-04-03T00:28:02.657Z,994.80
2019-04-03T00:29:02.625Z,994.80
2019-04-03T00:30:02.655Z,994.77
2019-04-03T00:31:02.575Z,994.75
2019-04-03T00:32:02.561Z,994.78
2019-04-03T00:33:02.526Z,994.72
2019-04-03T00:34:02.506Z,994.70
2019-04-03T00:35:02.659Z,994.76
2019-04-03T00:36:12.473Z,994.70
2019-04-03T00:37:02.433Z,994.68
2019-04-03T00:38:02.464Z,994.72
2019-04-03T00:39:02.389Z,994.73
2019-04-03T00:40:02.366Z,994.72
2019-04-03T00:41:02.462Z,994.79
2019-04-03T00:42:02.318Z,994.81
2019-04-03T00:43:02.295Z,994.81
2019-04-03T00:44:02.364Z,994.74
2019-04-03T00:45:02.256Z,994.74
2019-04-03T00:46:02.222Z,994.75
2019-04-03T00:47:12.398Z,994.78
2019-04-03T00:48:02.186Z,994.77
2019-04-03T00:49:02.165Z,994.75
2019-04-03T00:50:02.136Z,994.76
2019-04-03T00:51:02.112Z,994.72
2019-04-03T00:52:02.154Z,994.73
2019-04-03T00:53:02.059Z,994.73
2019-04-03T00:54:02.042Z,994.70
2019-04-03T00:55:02.026Z,994.69
2019-04-03T00:56:01.994Z,994.69
2019-04-03T00:57:01.965Z,994.61
2019-04-03T00:58:11.974Z,994.69
2019-04-03T00:59:02.116Z,994.66
2019-04-03T01:00:01.960Z,994.71
2019-04-03T01:01:01.898Z,994.67
2019-04-03T01:02:01.888Z,994.68
2019-04-03T01:03:01.856Z,994.61
2019-04-03T01:04:01.837Z,994.62
2019-04-03T01:05:01.816Z,994.60
2019-04-03T01:06:01.791Z,994.66
2019-04-03T01:07:01.772Z,994.60
2019-04-03T01:08:01.762Z,994.65
2019-04-03T01:09:11.767Z,994.63
2019-04-03T01:10:01.719Z,994.59
2019-04-03T01:11:01.690Z,994.53
2019-04-03T01:12:01.698Z,994.54
2019-04-03T01:13:02.218Z,994.56
2019-04-03T01:14:02.337Z,994.61
2019-04-03T01:15:02.336Z,994.58
2019-04-03T01:16:02.659Z,994.61
2019-04-03T01:17:03.729Z,994.68
2019-04-03T01:18:04.418Z,994.64
2019-04-03T01:19:01.484Z,994.60
2019-04-03T01:20:11.484Z,994.63
2019-04-03T01:21:01.446Z,994.61
2019-04-03T01:22:01.416Z,994.58
2019-04-03T01:23:01.388Z,994.60
2019-04-03T01:24:01.380Z,994.56
2019-04-03T01:25:01.337Z,994.52
2019-04-03T01:26:01.389Z,994.51
2019-04-03T01:27:01.343Z,994.54
2019-04-03T01:28:01.301Z,994.50
2019-04-03T01:29:01.284Z,994.43
2019-04-03T01:30:01.241Z,994.41
2019-04-03T01:31:11.280Z,994.50
2019-04-03T01:32:01.209Z,994.41
2019-04-03T01:33:01.181Z,994.55
2019-04-03T01:34:01.150Z,994.50
2019-04-03T01:35:01.307Z,994.46
2019-04-03T01:36:01.100Z,994.50
2019-04-03T01:37:01.082Z,994.49
2019-04-03T01:38:01.076Z,994.47
2019-04-03T01:39:01.031Z,994.45
2019-04-03T01:40:01.006Z,994.46
2019-04-03T01:41:00.986Z,994.41
2019-04-03T01:42:10.984Z,994.36
2019-04-03T01:43:01.001Z,994.40
2019-04-03T01:44:00.986Z,994.38
2019-04-03T01:45:00.897Z,994.33
2019-04-03T01:46:00.878Z,994.34
2019-04-03T01:47:00.997Z,994.32
2019-04-03T01:48:00.834Z,994.29
2019-04-03T01:49:00.808Z,994.32
2019-04-03T01:50:00.800Z,994.30
2019-04-03T01:51:00.766Z,994.22
2019-04-03T01:52:01.429Z,994.24
2019-04-03T01:53:02.442Z,994.22
2019-04-03T01:54:02.299Z,994.22
2019-04-03T01:55:10.719Z,994.23
2019-04-03T01:56:00.701Z,994.14
2019-04-03T01:57:00.682Z,994.19
2019-04-03T01:58:00.638Z,994.18
2019-04-03T01:59:00.630Z,994.12
2019-04-03T02:00:00.606Z,994.14
2019-04-03T02:01:00.579Z,994.10
2019-04-03T02:02:00.556Z,994.10
2019-04-03T02:03:02.169Z,994.06
2019-04-03T02:04:00.525Z,994.08
2019-04-03T02:05:00.499Z,994.05
2019-04-03T02:06:00.484Z,994.09
2019-04-03T02:07:00.469Z,994.07
2019-04-03T02:08:10.655Z,994.05
2019-04-03T02:09:00.427Z,994.09
2019-04-03T02:10:00.402Z,994.09
2019-04-03T02:11:00.379Z,994.11
2019-04-03T02:12:00.366Z,994.17
2019-04-03T02:13:00.402Z,994.15
2019-04-03T02:14:00.319Z,994.12
2019-04-03T02:15:00.289Z,994.13
2019-04-03T02:16:00.449Z,994.04
2019-04-03T02:17:00.242Z,994.09
2019-04-03T02:18:00.225Z,994.08
2019-04-03T02:19:10.339Z,994.11
2019-04-03T02:20:00.223Z,994.07
2019-04-03T02:21:00.187Z,994.06
2019-04-03T02:22:00.141Z,994.04
2019-04-03T02:23:00.587Z,994.02
2019-04-03T02:24:01.176Z,994.00
2019-04-03T02:25:01.850Z,994.04
2019-04-03T02:26:00.713Z,994.04
2019-04-03T02:27:00.956Z,994.07
2019-04-03T02:28:00.188Z,994.03
2019-04-03T02:29:00.276Z,994.04
2019-04-03T02:29:59.985Z,994.06
2019-04-03T02:30:59.977Z,994.03
2019-04-03T02:32:09.945Z,994.03
2019-04-03T02:33:00.039Z,993.98
2019-04-03T02:34:02.213Z,994.03
2019-04-03T02:34:59.874Z,994.01
2019-04-03T02:35:59.845Z,993.98
2019-04-03T02:36:59.817Z,993.99
2019-04-03T02:37:59.797Z,994.03
2019-04-03T02:38:59.778Z,993.99
2019-04-03T02:40:00.573Z,994.00
2019-04-03T02:41:03.459Z,994.00
2019-04-03T02:42:00.756Z,993.99
2019-04-03T02:43:13.440Z,993.94
2019-04-03T02:43:59.657Z,993.92
2019-04-03T02:44:59.629Z,993.95
2019-04-03T02:45:59.607Z,993.85
2019-04-03T02:47:01.144Z,993.84
2019-04-03T02:47:59.748Z,993.87
2019-04-03T02:48:59.546Z,993.80
2019-04-03T02:49:59.528Z,993.86
2019-04-03T02:50:59.514Z,993.82
2019-04-03T02:51:59.466Z,993.81
2019-04-03T02:52:59.568Z,993.84
2019-04-03T02:54:09.552Z,993.82
2019-04-03T02:54:59.403Z,993.84
2019-04-03T02:55:59.714Z,993.87
2019-04-03T02:56:59.379Z,993.80
2019-04-03T02:57:59.451Z,993.91
2019-04-03T02:58:59.323Z,993.76
2019-04-03T03:00:00.453Z,993.83
2019-04-03T03:00:59.288Z,993.81
2019-04-03T03:01:59.466Z,993.73
2019-04-03T03:02:59.320Z,993.81
2019-04-03T03:03:59.236Z,993.86
2019-04-03T03:05:09.230Z,993.84
2019-04-03T03:06:00.682Z,993.75
2019-04-03T03:06:59.162Z,993.78
2019-04-03T03:07:59.142Z,993.76
2019-04-03T03:08:59.121Z,993.81
2019-04-03T03:09:59.223Z,993.85
2019-04-03T03:10:59.067Z,993.77
2019-04-03T03:11:59.125Z,993.89
2019-04-03T03:13:01.072Z,993.89
2019-04-03T03:13:59.001Z,993.93
2019-04-03T03:14:59.128Z,993.88
2019-04-03T03:16:08.975Z,993.91
2019-04-03T03:16:58.958Z,993.96
2019-04-03T03:17:59.155Z,993.93
2019-04-03T03:19:00.828Z,993.91
2019-04-03T03:19:59.087Z,993.93
2019-04-03T03:20:58.859Z,993.90
2019-04-03T03:21:59.100Z,993.91
2019-04-03T03:22:58.845Z,993.80
2019-04-03T03:23:58.872Z,993.80
2019-04-03T03:25:00.941Z,993.82
2019-04-03T03:25:58.979Z,993.85
2019-04-03T03:27:09.929Z,993.84
2019-04-03T03:27:58.746Z,993.72
2019-04-03T03:29:14.268Z,993.82
2019-04-03T03:30:00.328Z,993.82
2019-04-03T03:31:03.166Z,993.86
2019-04-03T03:32:11.179Z,993.70
2019-04-03T03:33:22.404Z,993.72
2019-04-03T03:34:02.953Z,993.67
2019-04-03T03:35:09.817Z,993.76
2019-04-03T03:36:00.169Z,993.73
2019-04-03T03:37:02.173Z,993.80
2019-04-03T03:38:08.568Z,993.81
2019-04-03T03:38:58.535Z,993.83
2019-04-03T03:39:58.523Z,993.80
2019-04-03T03:40:58.737Z,993.71
2019-04-03T03:41:59.121Z,993.69
2019-04-03T03:42:58.487Z,993.82
2019-04-03T03:43:58.498Z,993.84
2019-04-03T03:44:58.429Z,993.71
2019-04-03T03:45:58.377Z,993.81
2019-04-03T03:47:00.996Z,993.72
2019-04-03T03:47:58.350Z,993.74
2019-04-03T03:48:58.326Z,993.70
2019-04-03T03:49:58.323Z,993.70
2019-04-03T03:51:08.662Z,993.73
2019-04-03T03:52:02.777Z,993.80
2019-04-03T03:52:59.649Z,993.77
2019-04-03T03:53:58.278Z,993.85
2019-04-03T03:54:58.231Z,993.85
2019-04-03T03:55:59.555Z,993.82
2019-04-03T03:56:58.199Z,993.79
2019-04-03T03:57:58.642Z,993.83
2019-04-03T03:58:58.145Z,993.79
2019-04-03T03:59:58.134Z,993.76
2019-04-03T04:01:00.311Z,993.68
2019-04-03T04:01:58.202Z,993.67
2019-04-03T04:02:58.075Z,993.67
2019-04-03T04:04:08.077Z,993.67
2019-04-03T04:04:58.071Z,993.64
2019-04-03T04:05:58.136Z,993.62
2019-04-03T04:07:02.033Z,993.61
2019-04-03T04:07:58.995Z,993.67
2019-04-03T04:08:57.975Z,993.67
2019-04-03T04:09:57.967Z,993.61
2019-04-03T04:10:59.411Z,993.64
2019-04-03T04:11:57.908Z,993.69
2019-04-03T04:12:57.889Z,993.69
2019-04-03T04:13:58.240Z,993.66
2019-04-03T04:14:58.011Z,993.63
2019-04-03T04:16:02.798Z,993.70
2019-04-03T04:17:14.749Z,993.77
2019-04-03T04:17:59.329Z,993.73
2019-04-03T04:18:58.261Z,993.71
2019-04-03T04:19:57.765Z,993.75
2019-04-03T04:20:57.729Z,993.68
2019-04-03T04:21:57.706Z,993.61
2019-04-03T04:22:57.689Z,993.71
2019-04-03T04:23:57.787Z,993.63
2019-04-03T04:24:59.554Z,993.62
2019-04-03T04:25:59.025Z,993.59
2019-04-03T04:26:57.608Z,993.68
2019-04-03T04:28:09.223Z,993.67
2019-04-03T04:28:57.591Z,993.53
2019-04-03T04:29:57.625Z,993.58
2019-04-03T04:30:57.533Z,993.56
2019-04-03T04:31:57.520Z,993.55
2019-04-03T04:32:57.640Z,993.53
2019-04-03T04:33:57.493Z,993.48
2019-04-03T04:34:57.479Z,993.48
2019-04-03T04:35:57.468Z,993.49
2019-04-03T04:36:57.707Z,993.49
2019-04-03T04:37:57.609Z,993.45
2019-04-03T04:38:58.308Z,993.43
2019-04-03T04:39:57.950Z,993.49
2019-04-03T04:41:07.416Z,993.48
2019-04-03T04:41:57.375Z,993.47
2019-04-03T04:42:57.356Z,993.43
2019-04-03T04:43:57.332Z,993.45
2019-04-03T04:44:57.311Z,993.43
2019-04-03T04:45:57.292Z,993.43
2019-04-03T04:46:57.263Z,993.44
2019-04-03T04:47:57.250Z,993.44
2019-04-03T04:48:57.320Z,993.42
2019-04-03T04:49:57.201Z,993.43
2019-04-03T04:50:57.182Z,993.39
2019-04-03T04:52:07.186Z,993.38
2019-04-03T04:52:58.746Z,993.36
2019-04-03T04:53:59.102Z,993.32
2019-04-03T04:54:57.301Z,993.37
2019-04-03T04:55:57.096Z,993.33
2019-04-03T04:56:57.068Z,993.37
2019-04-03T04:57:57.048Z,993.43
2019-04-03T04:58:57.029Z,993.41
2019-04-03T04:59:57.068Z,993.41
2019-04-03T05:00:56.992Z,993.40
2019-04-03T05:01:56.970Z,993.51
2019-04-03T05:02:56.951Z,993.43
2019-04-03T05:03:56.932Z,993.47
2019-04-03T05:05:09.065Z,993.45
2019-04-03T05:05:58.247Z,993.45
2019-04-03T05:06:58.235Z,993.45
2019-04-03T05:07:57.123Z,993.44
2019-04-03T05:08:56.844Z,993.44
2019-04-03T05:09:56.911Z,993.44
2019-04-03T05:10:56.819Z,993.39
2019-04-03T05:11:56.793Z,993.37
2019-04-03T05:12:56.773Z,993.38
2019-04-03T05:13:56.742Z,993.34
2019-04-03T05:14:56.721Z,993.32
2019-04-03T05:15:56.956Z,993.32
2019-04-03T05:16:56.830Z,993.36
2019-04-03T05:18:06.891Z,993.35
2019-04-03T05:19:08.978Z,993.36
2019-04-03T05:19:57.633Z,993.29
2019-04-03T05:20:56.606Z,993.31
2019-04-03T05:21:56.681Z,993.27
2019-04-03T05:22:56.799Z,993.25
2019-04-03T05:23:58.115Z,993.25
2019-04-03T05:24:59.363Z,993.23
2019-04-03T05:25:56.549Z,993.28
2019-04-03T05:26:56.496Z,993.25
2019-04-03T05:27:56.474Z,993.23
2019-04-03T05:29:06.474Z,993.20
2019-04-03T05:29:56.429Z,993.15
2019-04-03T05:30:56.570Z,993.18
2019-04-03T05:31:56.379Z,993.14
2019-04-03T05:32:56.357Z,993.11
2019-04-03T05:33:56.534Z,993.16
2019-04-03T05:34:56.307Z,993.11
2019-04-03T05:35:56.287Z,993.11
2019-04-03T05:36:56.267Z,993.12
2019-04-03T05:37:56.240Z,993.11
2019-04-03T05:38:56.265Z,993.10
2019-04-03T05:40:06.213Z,993.15
2019-04-03T05:40:56.516Z,993.12
2019-04-03T05:41:58.589Z,993.17
2019-04-03T05:42:56.203Z,993.19
2019-04-03T05:43:56.100Z,993.14
2019-04-03T05:44:56.075Z,993.12
2019-04-03T05:45:56.044Z,993.11
2019-04-03T05:46:58.771Z,993.05
2019-04-03T05:47:55.989Z,993.11
2019-04-03T05:48:55.960Z,993.07
2019-04-03T05:49:56.250Z,993.09
2019-04-03T05:51:06.183Z,993.01
2019-04-03T05:51:55.900Z,993.03
2019-04-03T05:52:55.877Z,993.04
2019-04-03T05:53:55.844Z,993.03
2019-04-03T05:54:55.821Z,993.06
2019-04-03T05:55:55.800Z,993.07
2019-04-03T05:56:55.772Z,993.04
2019-04-03T05:57:55.742Z,993.07
2019-04-03T05:58:59.040Z,993.09
2019-04-03T06:00:01.040Z,993.04
2019-04-03T06:01:04.409Z,993.06
2019-04-03T06:02:14.741Z,993.08
2019-04-03T06:02:57.622Z,993.09
2019-04-03T06:03:55.586Z,993.14
2019-04-03T06:04:55.601Z,993.11
2019-04-03T06:05:57.799Z,993.09
2019-04-03T06:06:55.623Z,993.05
2019-04-03T06:07:55.487Z,993.04
2019-04-03T06:08:56.777Z,993.06
2019-04-03T06:09:58.437Z,993.08
2019-04-03T06:10:55.415Z,993.09
2019-04-03T06:11:55.403Z,993.08
2019-04-03T06:13:06.196Z,993.10
2019-04-03T06:13:55.341Z,993.10
2019-04-03T06:14:55.345Z,993.04
2019-04-03T06:15:55.294Z,993.05
2019-04-03T06:16:56.239Z,993.03
2019-04-03T06:17:55.816Z,993.04
2019-04-03T06:18:55.276Z,993.03
2019-04-03T06:19:55.269Z,993.01
2019-04-03T06:20:55.156Z,993.04
2019-04-03T06:21:55.161Z,993.07
2019-04-03T06:22:55.265Z,993.08
2019-04-03T06:24:05.141Z,993.05
2019-04-03T06:24:56.434Z,993.05
2019-04-03T06:25:55.029Z,993.06
2019-04-03T06:26:55.000Z,993.06
2019-04-03T06:27:54.974Z,993.07
2019-04-03T06:28:55.075Z,993.10
2019-04-03T06:29:55.532Z,993.03
2019-04-03T06:30:56.619Z,993.03
2019-04-03T06:31:55.912Z,993.08
2019-04-03T06:32:55.416Z,992.98
2019-04-03T06:33:54.805Z,993.01
2019-04-03T06:35:04.801Z,992.97
2019-04-03T06:35:54.754Z,992.99
2019-04-03T06:36:54.724Z,992.99
2019-04-03T06:37:54.751Z,992.97
2019-04-03T06:38:56.090Z,992.94
2019-04-03T06:39:54.619Z,992.97
2019-04-03T06:40:54.581Z,992.96
2019-04-03T06:41:54.687Z,992.91
2019-04-03T06:42:54.517Z,992.92
2019-04-03T06:43:54.693Z,992.88
2019-04-03T06:44:54.729Z,992.88
2019-04-03T06:46:04.706Z,992.83
2019-04-03T06:46:55.036Z,992.78
2019-04-03T06:47:54.478Z,992.80
2019-04-03T06:48:55.673Z,992.83
2019-04-03T06:49:54.302Z,992.77
2019-04-03T06:50:54.281Z,992.90
2019-04-03T06:51:54.388Z,992.89
2019-04-03T06:52:54.218Z,992.83
2019-04-03T06:53:54.183Z,992.96
2019-04-03T06:54:54.204Z,992.87
2019-04-03T06:55:54.279Z,992.85
2019-04-03T06:57:04.264Z,992.88
2019-04-03T06:57:54.163Z,992.90
2019-04-03T06:58:54.033Z,992.90
2019-04-03T06:59:54.034Z,992.89
2019-04-03T07:00:55.036Z,992.86
2019-04-03T07:01:53.939Z,992.85
2019-04-03T07:02:53.919Z,992.85
2019-04-03T07:03:53.889Z,992.80
2019-04-03T07:04:53.835Z,992.77
2019-04-03T07:05:53.814Z,992.78
2019-04-03T07:06:55.755Z,992.79
2019-04-03T07:08:05.136Z,992.76
2019-04-03T07:08:53.932Z,992.74
2019-04-03T07:09:53.693Z,992.73
2019-04-03T07:10:55.465Z,992.73
2019-04-03T07:11:53.620Z,992.77
2019-04-03T07:12:53.580Z,992.69
2019-04-03T07:13:54.414Z,992.71
2019-04-03T07:14:53.520Z,992.68
2019-04-03T07:15:55.756Z,992.75
2019-04-03T07:16:53.508Z,992.72
2019-04-03T07:17:53.584Z,992.72
2019-04-03T07:19:03.584Z,992.67
2019-04-03T07:19:53.383Z,992.66
2019-04-03T07:20:53.330Z,992.71
2019-04-03T07:21:55.121Z,992.70
2019-04-03T07:22:53.265Z,992.66
2019-04-03T07:23:53.390Z,992.62
2019-04-03T07:24:53.206Z,992.70
2019-04-03T07:25:53.261Z,992.63
2019-04-03T07:26:53.135Z,992.67
2019-04-03T07:27:53.100Z,992.63
2019-04-03T07:28:53.075Z,992.64
2019-04-03T07:30:03.040Z,992.62
2019-04-03T07:30:53.945Z,992.67
2019-04-03T07:31:55.246Z,992.63
2019-04-03T07:32:52.939Z,992.60
2019-04-03T07:33:52.895Z,992.64
2019-04-03T07:34:52.868Z,992.62
2019-04-03T07:35:52.830Z,992.63
2019-04-03T07:36:53.015Z,992.66
2019-04-03T07:37:52.767Z,992.64
2019-04-03T07:38:52.724Z,992.68
2019-04-03T07:39:52.688Z,992.69
2019-04-03T07:41:02.931Z,992.75
2019-04-03T07:41:54.148Z,992.83
2019-04-03T07:42:55.715Z,992.77
2019-04-03T07:43:52.583Z,992.83
2019-04-03T07:44:52.546Z,992.90
2019-04-03T07:45:52.497Z,992.88
2019-04-03T07:46:54.793Z,992.93
2019-04-03T07:47:52.417Z,992.98
2019-04-03T07:48:52.463Z,992.97
2019-04-03T07:49:52.358Z,992.95
2019-04-03T07:50:52.309Z,992.99
2019-04-03T07:52:02.560Z,993.06
2019-04-03T07:52:52.240Z,993.02
2019-04-03T07:53:52.212Z,993.10
2019-04-03T07:54:52.921Z,993.10
2019-04-03T07:55:54.861Z,993.16
2019-04-03T07:56:52.129Z,993.15
2019-04-03T07:57:52.069Z,993.19
2019-04-03T07:58:52.297Z,993.18
2019-04-03T07:59:51.983Z,993.17
2019-04-03T08:00:51.943Z,993.19
2019-04-03T08:01:51.927Z,993.20
2019-04-03T08:03:01.917Z,993.19
2019-04-03T08:03:53.345Z,993.23
2019-04-03T08:04:51.813Z,993.21
2019-04-03T08:05:51.778Z,993.22
2019-04-03T08:06:52.174Z,993.22
2019-04-03T08:07:51.764Z,993.21
2019-04-03T08:09:05.831Z,993.22
2019-04-03T08:09:52.629Z,993.25
2019-04-03T08:10:51.593Z,993.26
2019-04-03T08:11:51.568Z,993.25
2019-04-03T08:12:51.528Z,993.28
2019-04-03T08:14:01.525Z,993.34
2019-04-03T08:14:51.461Z,993.29
2019-04-03T08:15:51.420Z,993.28
2019-04-03T08:16:51.382Z,993.28
2019-04-03T08:17:51.533Z,993.28
2019-04-03T08:18:52.065Z,993.24
2019-04-03T08:19:53.738Z,993.27
2019-04-03T08:20:51.263Z,993.28
2019-04-03T08:21:51.377Z,993.30
2019-04-03T08:22:51.186Z,993.35
2019-04-03T08:23:51.154Z,993.32
2019-04-03T08:25:01.138Z,993.32
2019-04-03T08:25:54.022Z,993.33
2019-04-03T08:26:52.129Z,993.36
2019-04-03T08:27:51.004Z,993.37
2019-04-03T08:28:50.975Z,993.36
2019-04-03T08:29:50.962Z,993.33
2019-04-03T08:30:51.177Z,993.26
2019-04-03T08:31:50.863Z,993.31
2019-04-03T08:32:50.830Z,993.29
2019-04-03T08:33:50.830Z,993.32
2019-04-03T08:34:51.061Z,993.29
2019-04-03T08:36:00.750Z,993.29
2019-04-03T08:36:50.833Z,993.27
2019-04-03T08:37:50.679Z,993.26
2019-04-03T08:38:50.883Z,993.22
2019-04-03T08:39:50.947Z,993.26
2019-04-03T08:40:52.525Z,993.29
2019-04-03T08:41:50.833Z,993.30
2019-04-03T08:42:50.522Z,993.24
2019-04-03T08:43:50.563Z,993.21
2019-04-03T08:44:50.469Z,993.26
2019-04-03T08:45:50.685Z,993.30
2019-04-03T08:47:00.442Z,993.26
2019-04-03T08:47:50.378Z,993.26
2019-04-03T08:48:50.350Z,993.30
2019-04-03T08:49:50.328Z,993.24
2019-04-03T08:50:50.300Z,993.29
2019-04-03T08:51:50.336Z,993.31
2019-04-03T08:52:50.245Z,993.32
2019-04-03T08:53:50.223Z,993.33
2019-04-03T08:54:50.356Z,993.36
2019-04-03T08:55:50.148Z,993.33
2019-04-03T08:56:50.116Z,993.39
2019-04-03T08:58:00.109Z,993.40
2019-04-03T08:58:50.407Z,993.33
2019-04-03T08:59:50.062Z,993.34
2019-04-03T09:00:50.730Z,993.38
2019-04-03T09:01:49.995Z,993.51
2019-04-03T09:02:50.233Z,993.52
2019-04-03T09:03:49.933Z,993.49
2019-04-03T09:04:49.918Z,993.49
2019-04-03T09:05:51.019Z,993.51
2019-04-03T09:06:49.915Z,993.53
2019-04-03T09:07:49.824Z,993.54
2019-04-03T09:09:00.099Z,993.51
2019-04-03T09:09:49.781Z,993.52
2019-04-03T09:10:49.736Z,993.54
2019-04-03T09:11:49.722Z,993.55
2019-04-03T09:12:49.674Z,993.54
2019-04-03T09:13:49.647Z,993.55
2019-04-03T09:14:49.816Z,993.57
2019-04-03T09:15:49.587Z,993.62
2019-04-03T09:16:49.562Z,993.60
2019-04-03T09:17:49.531Z,993.61
2019-04-03T09:18:49.500Z,993.53
2019-04-03T09:19:59.495Z,993.55
2019-04-03T09:20:49.448Z,993.53
2019-04-03T09:21:51.172Z,993.54
2019-04-03T09:22:49.735Z,993.58
2019-04-03T09:23:49.361Z,993.60
2019-04-03T09:24:49.336Z,993.67
2019-04-03T09:25:49.348Z,993.63
2019-04-03T09:26:49.271Z,993.58
2019-04-03T09:27:49.239Z,993.59
2019-04-03T09:28:49.222Z,993.63
2019-04-03T09:29:49.175Z,993.66
2019-04-03T09:30:59.168Z,993.65
2019-04-03T09:31:51.241Z,993.79
2019-04-03T09:32:49.074Z,993.69
2019-04-03T09:33:49.036Z,993.64
2019-04-03T09:34:49.383Z,993.63
2019-04-03T09:35:48.981Z,993.63
2019-04-03T09:36:48.960Z,993.61
2019-04-03T09:37:48.903Z,993.65
2019-04-03T09:38:48.873Z,993.74
2019-04-03T09:39:48.837Z,993.67
2019-04-03T09:40:48.841Z,993.71
2019-04-03T09:41:58.796Z,993.62
2019-04-03T09:42:49.806Z,993.67
2019-04-03T09:43:48.982Z,993.72
2019-04-03T09:44:48.670Z,993.73
2019-04-03T09:45:48.668Z,993.67
2019-04-03T09:46:48.612Z,993.72
2019-04-03T09:50:00.734Z,993.71
2019-04-03T09:51:00.418Z,993.77
2019-04-03T09:52:00.443Z,993.68
2019-04-03T09:53:02.304Z,993.69
2019-04-03T09:54:00.299Z,993.78
2019-04-03T09:55:00.984Z,993.80
2019-04-03T09:56:00.210Z,993.77
2019-04-03T09:57:04.607Z,993.78
2019-04-03T09:58:03.327Z,993.75
2019-04-03T09:59:00.406Z,993.67
2019-04-03T10:00:00.372Z,993.68
2019-04-03T10:01:10.036Z,993.68
2019-04-03T10:02:00.162Z,993.65
2019-04-03T10:02:59.982Z,993.69
2019-04-03T10:03:59.898Z,993.66
2019-04-03T10:04:59.857Z,993.65
2019-04-03T10:06:00.715Z,993.71
2019-04-03T10:07:01.891Z,993.71
2019-04-03T10:07:59.750Z,993.69
2019-04-03T10:08:59.952Z,993.72
2019-04-03T10:09:59.668Z,993.72
2019-04-03T10:10:59.647Z,993.78
2019-04-03T10:12:09.608Z,993.83
2019-04-03T10:12:59.751Z,993.86
2019-04-03T10:13:59.563Z,993.85
2019-04-03T10:15:00.125Z,993.79
2019-04-03T10:16:03.156Z,993.78
2019-04-03T10:16:59.392Z,993.81
2019-04-03T10:17:59.347Z,993.80
2019-04-03T10:18:59.308Z,993.76
2019-04-03T10:19:59.277Z,993.75
2019-04-03T10:20:59.245Z,993.78
2019-04-03T10:21:59.197Z,993.67
2019-04-03T10:23:09.170Z,993.71
2019-04-03T10:24:00.348Z,993.62
2019-04-03T10:25:00.533Z,993.52
2019-04-03T10:25:59.117Z,993.55
2019-04-03T10:26:59.225Z,993.53
2019-04-03T10:27:59.013Z,993.49
2019-04-03T10:28:59.190Z,993.51
2019-04-03T10:29:58.908Z,993.47
2019-04-03T10:30:58.872Z,993.47
2019-04-03T10:31:59.058Z,993.52
2019-04-03T10:32:59.603Z,993.46
2019-04-03T10:34:08.779Z,993.53
2019-04-03T10:34:59.028Z,993.47
2019-04-03T10:35:59.019Z,993.44
2019-04-03T10:36:58.651Z,993.39
2019-04-03T10:37:58.805Z,993.34
2019-04-03T10:38:58.578Z,993.38
2019-04-03T10:39:58.547Z,993.40
2019-04-03T10:40:58.621Z,993.43
2019-04-03T10:42:00.357Z,993.43
2019-04-03T10:43:00.073Z,993.41
2019-04-03T10:43:58.370Z,993.38
2019-04-03T10:45:08.352Z,993.34
2019-04-03T10:45:58.474Z,993.41
2019-04-03T10:46:58.270Z,993.37
2019-04-03T10:47:58.222Z,993.35
2019-04-03T10:49:00.423Z,993.31
2019-04-03T10:49:58.141Z,993.41
2019-04-03T10:50:58.106Z,993.32
2019-04-03T10:51:58.398Z,993.28
2019-04-03T10:52:58.026Z,993.24
2019-04-03T10:53:57.984Z,993.19
2019-04-03T10:54:57.947Z,993.24
2019-04-03T10:56:08.019Z,993.21
2019-04-03T10:56:57.880Z,993.09
2019-04-03T10:58:00.756Z,993.12
2019-04-03T10:59:09.557Z,993.08
2019-04-03T10:59:58.740Z,993.13
2019-04-03T11:00:59.077Z,993.10
2019-04-03T11:01:57.663Z,993.13
2019-04-03T11:02:57.610Z,993.11
2019-04-03T11:03:57.562Z,993.14
2019-04-03T11:05:00.086Z,993.14
2019-04-03T11:05:57.485Z,993.12
2019-04-03T11:07:07.466Z,993.09
2019-04-03T11:07:57.407Z,993.02
2019-04-03T11:08:57.859Z,993.12
2019-04-03T11:09:57.536Z,993.03
2019-04-03T11:10:58.086Z,993.05
2019-04-03T11:11:58.296Z,992.97
2019-04-03T11:12:57.213Z,992.93
2019-04-03T11:13:57.179Z,992.94
2019-04-03T11:14:57.252Z,992.99
2019-04-03T11:15:57.115Z,992.97
2019-04-03T11:16:57.076Z,992.93
2019-04-03T11:18:07.049Z,992.95
2019-04-03T11:19:00.703Z,993.00
2019-04-03T11:19:57.948Z,993.03
2019-04-03T11:20:56.917Z,993.02
2019-04-03T11:21:56.979Z,993.01
2019-04-03T11:23:05.678Z,993.01
2019-04-03T11:23:58.074Z,993.04
2019-04-03T11:24:56.777Z,993.06
2019-04-03T11:25:56.739Z,993.10
2019-04-03T11:26:57.020Z,993.10
2019-04-03T11:27:56.684Z,993.09
2019-04-03T11:29:08.789Z,993.05
2019-04-03T11:29:56.610Z,993.04
2019-04-03T11:31:01.161Z,993.05
2019-04-03T11:31:57.618Z,993.04
2019-04-03T11:32:56.495Z,992.98
2019-04-03T11:33:56.455Z,993.03
2019-04-03T11:34:56.461Z,993.03
2019-04-03T11:35:56.472Z,993.03
2019-04-03T11:36:56.363Z,993.06
2019-04-03T11:37:56.332Z,993.01
2019-04-03T11:39:10.698Z,992.97
2019-04-03T11:40:07.358Z,993.03
2019-04-03T11:40:56.203Z,993.00
2019-04-03T11:41:56.398Z,993.05
2019-04-03T11:42:56.139Z,993.07
2019-04-03T11:43:56.398Z,993.10
2019-04-03T11:44:56.093Z,993.09
2019-04-03T11:45:56.045Z,992.99
2019-04-03T11:46:56.021Z,992.98
2019-04-03T11:47:55.981Z,992.97
2019-04-03T11:48:55.939Z,992.99
2019-04-03T11:49:55.903Z,992.94
2019-04-03T11:51:05.905Z,992.96
2019-04-03T11:51:56.171Z,992.91
2019-04-03T11:52:55.799Z,992.82
2019-04-03T11:53:55.766Z,992.85
2019-04-03T11:54:55.741Z,992.80
2019-04-03T11:55:55.695Z,992.82
2019-04-03T11:56:56.912Z,992.81
2019-04-03T11:57:55.988Z,992.79
2019-04-03T11:58:55.582Z,992.78
2019-04-03T11:59:57.078Z,992.82
2019-04-03T12:00:55.504Z,992.85
2019-04-03T12:02:07.429Z,992.92
2019-04-03T12:02:55.646Z,992.93
2019-04-03T12:03:55.389Z,992.98
2019-04-03T12:04:55.444Z,992.93
2019-04-03T12:05:55.321Z,992.90
2019-04-03T12:06:55.293Z,992.83
2019-04-03T12:07:56.646Z,992.91
2019-04-03T12:08:55.601Z,992.85
2019-04-03T12:09:55.185Z,992.87
2019-04-03T12:10:55.155Z,992.83
2019-04-03T12:11:55.545Z,992.88
2019-04-03T12:13:05.119Z,992.90
2019-04-03T12:13:55.062Z,992.96
2019-04-03T12:14:55.320Z,992.91
2019-04-03T12:15:57.708Z,992.87
2019-04-03T12:16:57.100Z,992.83
2019-04-03T12:17:54.915Z,992.80
2019-04-03T12:18:54.990Z,992.82
2019-04-03T12:19:54.849Z,992.72
2019-04-03T12:20:54.825Z,992.69
2019-04-03T12:21:54.784Z,992.74
2019-04-03T12:22:55.742Z,992.80
2019-04-03T12:24:04.897Z,992.71
2019-04-03T12:24:55.048Z,992.73
2019-04-03T12:25:54.953Z,992.78
2019-04-03T12:26:55.452Z,992.73
2019-04-03T12:27:54.620Z,992.72
2019-04-03T12:28:54.851Z,992.73
2019-04-03T12:29:55.636Z,992.67